Salavat, Russia
Current Conditions -  °F | °C
As of 12:00 PM on Friday 24 Oct 2014 (Local Time) from UWUU Reporting Station
Light Snow Light Snow  
Wind Chill:   Ceiling: 2000
Heat Index: 18°   Visibility: 6mi
Dew Point: 12°   Wind: 18mph
Humidity: 79%   Direction: 310°NW
Pressure: 29.88"   Gusts: NA
Location:  53.37°N, 55.92°E
Report Text: UWUU 240700Z 31008MPS 9999 -SN BKN020 M08/M11 Q1012 32492044TEMPO 0500 +SHSN BKN004 RMK QFE747/0996
Loading
Personal Weather Stations






























Interactive Weather Map
Tropical Storm Tracking
New forecast layout! Learn more

10-Day Weather Forecast

Advertisements
Track Severe Weather on mobile